createdAt,value
2018-05-08T00:00:39.140Z,17.90
2018-05-08T00:04:11.629Z,17.90
2018-05-08T00:07:44.107Z,17.90
2018-05-08T00:11:17.364Z,17.80
2018-05-08T00:14:49.840Z,17.80
2018-05-08T00:18:22.311Z,17.80
2018-05-08T00:21:54.798Z,17.80
2018-05-08T00:25:27.291Z,17.70
2018-05-08T00:28:59.782Z,17.70
2018-05-08T00:32:32.244Z,17.70
2018-05-08T00:40:29.225Z,17.60
2018-05-08T00:44:01.826Z,17.50
2018-05-08T00:47:35.177Z,17.40
2018-05-08T00:51:07.770Z,17.40
2018-05-08T00:54:52.120Z,17.30
2018-05-08T00:58:24.673Z,17.30
2018-05-08T01:01:57.226Z,17.30
2018-05-08T01:05:29.784Z,17.20
2018-05-08T01:09:02.374Z,17.20
2018-05-08T01:12:35.014Z,17.20
2018-05-08T01:16:07.573Z,17.20
2018-05-08T01:19:40.127Z,17.10
2018-05-08T01:23:13.445Z,17.10
2018-05-08T01:26:46.050Z,17.10
2018-05-08T01:30:19.348Z,17.10
2018-05-08T01:33:51.912Z,17.10
2018-05-08T01:37:24.524Z,17.10
2018-05-08T01:40:57.112Z,17.10
2018-05-08T01:44:29.681Z,17.10
2018-05-08T01:48:02.242Z,17.10
2018-05-08T01:51:35.574Z,17.10
2018-05-08T01:55:08.136Z,17.10
2018-05-08T01:58:40.704Z,17.10
2018-05-08T02:02:14.031Z,17.10
2018-05-08T02:05:46.578Z,17.10
2018-05-08T02:09:19.149Z,17.10
2018-05-08T02:12:51.729Z,17.10
2018-05-08T02:16:24.281Z,17.00
2018-05-08T02:19:56.837Z,17.00
2018-05-08T02:23:30.164Z,16.80
2018-05-08T02:30:59.198Z,16.70
2018-05-08T02:34:31.765Z,16.70
2018-05-08T02:38:04.332Z,16.60
2018-05-08T02:41:37.656Z,16.50
2018-05-08T02:45:10.215Z,16.50
2018-05-08T02:48:42.782Z,16.40
2018-05-08T02:52:15.343Z,16.40
2018-05-08T02:55:47.898Z,16.40
2018-05-08T02:59:20.465Z,16.30
2018-05-08T03:02:53.032Z,16.30
2018-05-08T03:06:25.589Z,16.30
2018-05-08T03:09:58.145Z,16.20
2018-05-08T03:13:30.713Z,16.20
2018-05-08T03:17:03.296Z,16.20
2018-05-08T03:20:35.859Z,16.20
2018-05-08T03:24:08.415Z,16.10
2018-05-08T03:27:40.988Z,16.10
2018-05-08T03:31:13.560Z,16.10
2018-05-08T03:34:46.128Z,16.10
2018-05-08T03:38:18.683Z,16.10
2018-05-08T03:41:51.258Z,16.00
2018-05-08T03:45:24.621Z,15.90
2018-05-08T03:48:57.184Z,15.90
2018-05-08T03:52:29.732Z,15.90
2018-05-08T03:56:02.291Z,15.90
2018-05-08T03:59:34.844Z,15.80
2018-05-08T04:03:19.966Z,15.80
2018-05-08T04:07:05.061Z,15.70
2018-05-08T04:10:37.621Z,15.70
2018-05-08T04:14:10.945Z,15.60
2018-05-08T04:17:43.522Z,15.60
2018-05-08T04:21:16.090Z,15.60
2018-05-08T04:24:49.446Z,15.60
2018-05-08T04:28:22.004Z,15.60
2018-05-08T04:31:54.581Z,15.60
2018-05-08T04:35:27.140Z,15.60
2018-05-08T04:39:00.544Z,15.70
2018-05-08T04:42:33.868Z,15.80
2018-05-08T04:46:06.436Z,15.70
2018-05-08T04:49:39.757Z,15.80
2018-05-08T04:53:12.341Z,15.90
2018-05-08T04:56:44.896Z,15.90
2018-05-08T05:00:17.468Z,16.00
2018-05-08T05:03:50.028Z,16.10
2018-05-08T05:07:22.591Z,16.10
2018-05-08T05:10:55.162Z,16.20
2018-05-08T05:14:27.732Z,16.30
2018-05-08T05:18:01.080Z,16.40
2018-05-08T05:21:33.658Z,16.30
2018-05-08T05:25:06.216Z,16.40
2018-05-08T05:28:38.789Z,16.50
2018-05-08T05:32:11.361Z,16.60
2018-05-08T05:35:44.696Z,16.70
2018-05-08T05:39:17.257Z,16.60
2018-05-08T05:42:49.839Z,16.70
2018-05-08T05:46:23.173Z,16.90
2018-05-08T05:49:55.737Z,16.80
2018-05-08T05:53:28.293Z,17.00
2018-05-08T05:57:01.632Z,17.50
2018-05-08T06:00:34.187Z,17.50
2018-05-08T06:04:07.521Z,17.50
2018-05-08T06:07:40.075Z,17.50
2018-05-08T06:11:13.421Z,17.60
2018-05-08T06:14:45.981Z,17.60
2018-05-08T06:18:18.545Z,17.60
2018-05-08T06:21:51.903Z,17.80
2018-05-08T06:25:24.467Z,17.80
2018-05-08T06:28:57.036Z,17.90
2018-05-08T06:32:29.607Z,18.00
2018-05-08T06:36:02.172Z,18.20
2018-05-08T06:39:35.607Z,18.40
2018-05-08T06:43:08.116Z,18.40
2018-05-08T06:46:40.739Z,18.50
2018-05-08T06:50:13.257Z,18.60
2018-05-08T06:53:45.828Z,18.80
2018-05-08T06:57:18.405Z,19.00
2018-05-08T07:00:50.971Z,19.10
2018-05-08T07:04:23.527Z,19.30
2018-05-08T07:07:56.101Z,19.40
2018-05-08T07:11:28.659Z,19.40
2018-05-08T07:15:01.224Z,19.50
2018-05-08T07:18:34.564Z,19.80
2018-05-08T07:22:07.119Z,19.80
2018-05-08T07:25:39.696Z,19.90
2018-05-08T07:29:12.278Z,20.00
2018-05-08T07:32:45.617Z,20.10
2018-05-08T07:36:18.187Z,20.10
2018-05-08T07:39:50.797Z,20.20
2018-05-08T07:43:23.345Z,20.20
2018-05-08T07:46:55.915Z,20.30
2018-05-08T07:50:29.236Z,20.70
2018-05-08T07:54:01.838Z,20.70
2018-05-08T07:57:34.449Z,20.90
2018-05-08T08:01:07.087Z,21.00
2018-05-08T08:04:39.860Z,21.20
2018-05-08T08:08:13.200Z,21.20
2018-05-08T08:11:45.762Z,21.20
2018-05-08T08:15:18.333Z,21.30
2018-05-08T08:18:51.652Z,21.40
2018-05-08T08:22:24.211Z,21.40
2018-05-08T08:25:57.541Z,21.60
2018-05-08T08:29:30.120Z,21.60
2018-05-08T08:33:02.676Z,21.70
2018-05-08T08:36:35.243Z,21.80
2018-05-08T08:40:07.796Z,21.90
2018-05-08T08:43:40.364Z,22.10
2018-05-08T08:47:12.924Z,22.20
2018-05-08T08:50:45.498Z,22.30
2018-05-08T08:54:18.817Z,22.60
2018-05-08T08:57:51.380Z,22.60
2018-05-08T09:01:24.701Z,22.80
2018-05-08T09:04:57.264Z,22.70
2018-05-08T09:08:30.585Z,22.80
2018-05-08T09:12:03.164Z,22.80
2018-05-08T09:15:35.724Z,22.80
2018-05-08T09:19:08.284Z,22.90
2018-05-08T09:22:40.859Z,22.80
2018-05-08T09:26:13.425Z,22.90
2018-05-08T09:29:45.988Z,23.00
2018-05-08T09:33:18.548Z,23.10
2018-05-08T09:36:51.116Z,23.30
2018-05-08T09:40:23.680Z,23.40
2018-05-08T09:43:56.243Z,23.50
2018-05-08T09:47:28.812Z,23.60
2018-05-08T09:51:01.372Z,23.70
2018-05-08T09:54:33.940Z,23.80
2018-05-08T09:58:06.499Z,23.70
2018-05-08T10:01:39.066Z,23.60
2018-05-08T10:05:11.629Z,23.70
2018-05-08T10:08:44.192Z,23.80
2018-05-08T10:12:17.529Z,23.90
2018-05-08T10:15:50.076Z,23.90
2018-05-08T10:19:22.643Z,24.00
2018-05-08T10:22:55.193Z,24.00
2018-05-08T10:26:27.769Z,24.00
2018-05-08T10:30:02.007Z,23.90
2018-05-08T10:33:34.576Z,23.90
2018-05-08T10:37:07.132Z,24.00
2018-05-08T10:40:39.715Z,24.00
2018-05-08T10:44:13.045Z,24.10
2018-05-08T10:47:45.611Z,24.00
2018-05-08T10:51:18.175Z,24.10
2018-05-08T10:54:51.511Z,24.50
2018-05-08T10:58:24.077Z,24.50
2018-05-08T11:01:56.658Z,24.60
2018-05-08T11:05:29.228Z,24.60
2018-05-08T11:09:02.597Z,24.80
2018-05-08T11:12:35.178Z,24.80
2018-05-08T11:16:07.736Z,24.80
2018-05-08T11:19:40.303Z,24.80
2018-05-08T11:23:12.885Z,24.80
2018-05-08T11:26:45.526Z,24.90
2018-05-08T11:30:18.098Z,25.10
2018-05-08T11:33:50.680Z,25.10
2018-05-08T11:37:23.288Z,25.10
2018-05-08T11:40:55.852Z,25.10
2018-05-08T11:44:28.536Z,25.00
2018-05-08T11:48:01.873Z,24.90
2018-05-08T11:51:35.204Z,25.00
2018-05-08T11:55:07.794Z,25.00
2018-05-08T11:58:40.376Z,25.00
2018-05-08T12:02:12.949Z,25.10
2018-05-08T12:05:45.517Z,25.10
2018-05-08T12:09:18.854Z,24.90
2018-05-08T12:12:51.421Z,24.90
2018-05-08T12:16:23.992Z,24.80
2018-05-08T12:19:57.321Z,25.00
2018-05-08T12:23:29.881Z,24.90
2018-05-08T12:27:02.472Z,25.00
2018-05-08T12:30:35.097Z,25.10
2018-05-08T12:34:07.629Z,25.20
2018-05-08T12:37:40.217Z,25.30
2018-05-08T12:41:12.776Z,25.40
2018-05-08T12:44:45.363Z,25.30
2018-05-08T12:48:17.933Z,25.20
2018-05-08T12:51:50.568Z,25.10
2018-05-08T12:55:23.144Z,25.10
2018-05-08T12:58:55.753Z,25.20
2018-05-08T13:02:28.324Z,25.20
2018-05-08T13:06:00.894Z,25.20
2018-05-08T13:09:33.458Z,25.40
2018-05-08T13:13:06.789Z,25.70
2018-05-08T13:16:39.384Z,25.70
2018-05-08T13:20:11.949Z,25.80
2018-05-08T13:23:44.515Z,26.00
2018-05-08T13:27:17.117Z,26.10
2018-05-08T13:30:49.673Z,26.30
2018-05-08T13:34:22.244Z,26.40
2018-05-08T13:37:54.821Z,26.40
2018-05-08T13:41:27.373Z,26.40
2018-05-08T13:44:59.940Z,26.40
2018-05-08T13:48:32.493Z,26.50
2018-05-08T13:52:05.066Z,26.80
2018-05-08T13:55:37.650Z,27.00
2018-05-08T13:59:10.217Z,27.20
2018-05-08T14:02:42.788Z,27.40
2018-05-08T14:06:15.415Z,27.60
2018-05-08T14:09:47.953Z,27.60
2018-05-08T14:13:20.573Z,27.70
2018-05-08T14:16:53.133Z,27.80
2018-05-08T14:20:25.858Z,27.80
2018-05-08T14:23:58.305Z,27.90
2018-05-08T14:27:30.865Z,28.10
2018-05-08T14:31:03.437Z,28.20
2018-05-08T14:34:36.018Z,28.10
2018-05-08T14:38:08.586Z,27.90
2018-05-08T14:41:41.245Z,28.00
2018-05-08T14:45:13.842Z,28.10
2018-05-08T14:48:46.476Z,28.20
2018-05-08T14:52:19.130Z,28.40
2018-05-08T14:55:51.692Z,28.40
2018-05-08T14:59:24.278Z,28.60
2018-05-08T15:02:56.993Z,28.90
2018-05-08T15:06:29.554Z,29.20
2018-05-08T15:10:02.900Z,29.30
2018-05-08T15:13:35.490Z,29.30
2018-05-08T15:17:08.052Z,29.50
2018-05-08T15:20:40.620Z,29.50
2018-05-08T15:24:13.199Z,29.30
2018-05-08T15:27:46.547Z,29.00
2018-05-08T15:31:19.124Z,28.90
2018-05-08T15:34:51.696Z,29.20
2018-05-08T15:38:24.276Z,29.60
2018-05-08T15:41:56.847Z,29.90
2018-05-08T15:45:29.436Z,30.10
2018-05-08T15:49:02.020Z,30.20
2018-05-08T15:52:34.596Z,30.40
2018-05-08T15:56:07.933Z,30.00
2018-05-08T15:59:40.629Z,30.00
2018-05-08T16:03:13.205Z,29.70
2018-05-08T16:06:45.772Z,29.50
2018-05-08T16:10:19.127Z,29.00
2018-05-08T16:13:51.745Z,29.00
2018-05-08T16:17:24.314Z,28.90
2018-05-08T16:20:57.708Z,28.70
2018-05-08T16:24:30.240Z,28.70
2018-05-08T16:28:02.826Z,28.20
2018-05-08T16:31:35.399Z,27.80
2018-05-08T16:35:07.984Z,27.40
2018-05-08T16:38:40.558Z,27.10
2018-05-08T16:42:13.117Z,26.80
2018-05-08T16:45:46.457Z,26.50
2018-05-08T16:49:19.033Z,26.40
2018-05-08T16:52:51.597Z,26.30
2018-05-08T16:56:24.164Z,26.10
2018-05-08T16:59:56.741Z,26.00
2018-05-08T17:03:29.314Z,25.90
2018-05-08T17:07:01.909Z,25.80
2018-05-08T17:10:34.589Z,25.80
2018-05-08T17:14:07.110Z,25.70
2018-05-08T17:17:39.708Z,25.70
2018-05-08T17:21:12.298Z,25.60
2018-05-08T17:24:44.869Z,25.60
2018-05-08T17:28:17.430Z,25.50
2018-05-08T17:31:50.801Z,25.40
2018-05-08T17:35:23.374Z,25.30
2018-05-08T17:38:55.976Z,25.30
2018-05-08T17:42:28.610Z,25.10
2018-05-08T17:46:01.213Z,25.00
2018-05-08T17:49:40.663Z,24.90
2018-05-08T17:53:13.324Z,24.80
2018-05-08T17:56:46.990Z,24.70
2018-05-08T18:00:19.550Z,24.60
2018-05-08T18:03:52.144Z,24.60
2018-05-08T18:07:24.712Z,24.50
2018-05-08T18:10:57.276Z,24.40
2018-05-08T18:14:29.830Z,24.40
2018-05-08T18:18:02.393Z,24.30
2018-05-08T18:21:35.763Z,24.20
2018-05-08T18:25:08.429Z,24.20
2018-05-08T18:28:40.996Z,24.10
2018-05-08T18:32:14.341Z,24.00
2018-05-08T18:35:46.918Z,24.00
2018-05-08T18:39:19.477Z,23.90
2018-05-08T18:42:52.048Z,23.90
2018-05-08T18:46:24.602Z,23.70
2018-05-08T18:49:57.229Z,23.60
2018-05-08T18:53:30.563Z,23.50
2018-05-08T18:57:03.125Z,23.50
2018-05-08T19:00:41.221Z,23.40
2018-05-08T19:04:14.552Z,23.20
2018-05-08T19:07:47.145Z,23.20
2018-05-08T19:11:25.303Z,23.20
2018-05-08T19:15:03.532Z,23.10
2018-05-08T19:18:42.408Z,22.90
2018-05-08T19:22:14.964Z,22.90
2018-05-08T19:25:48.293Z,22.80
2018-05-08T19:29:26.398Z,22.70
2018-05-08T19:32:58.977Z,22.70
2018-05-08T19:36:37.093Z,22.60
2018-05-08T19:40:09.683Z,22.60
2018-05-08T19:43:42.260Z,22.50
2018-05-08T19:47:14.815Z,22.40
2018-05-08T19:50:47.384Z,22.30
2018-05-08T19:54:19.944Z,22.30
2018-05-08T19:57:52.592Z,22.20
2018-05-08T20:01:25.092Z,22.20
2018-05-08T20:04:57.764Z,22.10
2018-05-08T20:08:30.325Z,22.00
2018-05-08T20:12:03.665Z,21.80
2018-05-08T20:15:36.241Z,21.80
2018-05-08T20:19:08.793Z,21.70
2018-05-08T20:22:42.125Z,21.60
2018-05-08T20:26:14.677Z,21.60
2018-05-08T20:29:48.062Z,21.50
2018-05-08T20:33:21.404Z,21.40
2018-05-08T20:36:53.963Z,21.40
2018-05-08T20:40:27.285Z,21.30
2018-05-08T20:43:59.853Z,21.30
2018-05-08T20:47:33.193Z,21.20
2018-05-08T20:51:06.753Z,21.10
2018-05-08T20:54:39.341Z,21.10
2018-05-08T20:58:12.727Z,21.00
2018-05-08T21:01:45.308Z,21.00
2018-05-08T21:05:17.872Z,20.90
2018-05-08T21:08:50.439Z,20.90
2018-05-08T21:12:22.996Z,20.80
2018-05-08T21:15:55.550Z,20.80
2018-05-08T21:19:28.114Z,20.70
2018-05-08T21:23:00.688Z,20.70
2018-05-08T21:26:33.285Z,20.60
2018-05-08T21:30:11.526Z,20.50
2018-05-08T21:33:44.857Z,20.50
2018-05-08T21:37:17.411Z,20.50
2018-05-08T21:40:49.987Z,20.50
2018-05-08T21:44:22.553Z,20.40
2018-05-08T21:47:55.107Z,20.40
2018-05-08T21:51:27.668Z,20.40
2018-05-08T21:55:00.233Z,20.30
2018-05-08T21:58:33.564Z,20.20
2018-05-08T22:02:06.128Z,20.20
2018-05-08T22:05:39.453Z,20.10
2018-05-08T22:09:12.014Z,20.00
2018-05-08T22:12:45.337Z,20.00
2018-05-08T22:16:17.928Z,19.90
2018-05-08T22:19:50.480Z,19.80
2018-05-08T22:23:23.828Z,19.80
2018-05-08T22:26:56.385Z,19.70
2018-05-08T22:30:28.949Z,19.60
2018-05-08T22:34:02.278Z,19.40
2018-05-08T22:37:34.856Z,19.40
2018-05-08T22:41:07.428Z,19.40
2018-05-08T22:44:40.740Z,19.20
2018-05-08T22:48:13.306Z,19.20
2018-05-08T22:51:46.619Z,19.10
2018-05-08T22:55:19.213Z,19.10
2018-05-08T22:58:51.772Z,19.10
2018-05-08T23:02:25.109Z,19.10
2018-05-08T23:05:57.673Z,19.10
2018-05-08T23:09:30.256Z,19.00
2018-05-08T23:13:02.808Z,19.00
2018-05-08T23:16:35.365Z,18.90
2018-05-08T23:20:07.928Z,18.90
2018-05-08T23:23:40.520Z,18.90
2018-05-08T23:27:13.108Z,18.90
2018-05-08T23:30:45.662Z,18.90
2018-05-08T23:34:18.238Z,18.80
2018-05-08T23:37:50.800Z,18.80
2018-05-08T23:41:23.365Z,18.80
2018-05-08T23:44:55.919Z,18.80
2018-05-08T23:48:28.478Z,18.80
2018-05-08T23:52:01.045Z,18.80
2018-05-08T23:55:34.357Z,18.70
2018-05-08T23:59:07.012Z,18.70
